Flight Track Log - Related Links

Times and Time Zones

All times are in EDT time to prevent confusion due to time zone crossing. See the ASQ5941 flight status page for this flight to view local times or setup timezone preferences in your user account.

Time Position Orientation Groundspeed Altitude Reporting Facility
EDT Latitude Longitude Course Direction KTS MPH feet Rate Location/Type
Thu 03:38:53 PM 42.0000 -87.9500 71° East 178 205 1,900  Level Chicago TRACON
Thu 03:39:53 PM 42.0667 -87.9167 20° North 236 272 3,500 1,835 Climbing Chicago TRACON
Thu 03:40:54 PM 42.1000 -87.8500 56° Northeast 261 300 5,600 2,132 Climbing Chicago TRACON
Thu 03:41:00 PM 41.9808 -87.4092 75° East  Level Estimated
Thu 03:41:54 PM 42.1000 -87.7500 90° East 265 305 7,800  Level Chicago TRACON
Thu 03:42:00 PM 41.9800 -87.2434 80° East  Level Estimated
Thu 03:42:54 PM 42.1000 -87.6500 90° East 291 335 9,700  Level Chicago TRACON
Thu 03:43:00 PM 41.9790 -87.0776 90° East  Level Estimated
Thu 03:43:36 PM 42.1056 -87.5758 84° East 286 329 10,700  Level Chicago Center
Thu 03:44:00 PM 42.0190 -86.9207 71° East  Level FlightAware Approximate
Thu 03:44:38 PM 42.1072 -87.4606 89° East 303 349 12,400  Level Chicago Center
Thu 03:45:40 PM 42.1083 -87.3347 89° East 329 379 13,300 823 Climbing Chicago Center
Thu 03:46:42 PM 42.1114 -87.1931 88° East 370 426 14,100 919 Climbing Chicago Center
Thu 03:47:44 PM 42.1133 -87.0425 89° East 394 453 15,200 1,306 Climbing Chicago Center
Thu 03:48:46 PM 42.1189 -86.8561 88° East 413 475 16,800 1,500 Climbing Chicago Center
Thu 03:49:48 PM 42.1258 -86.7028 86° East 412 474 18,300 1,210 Climbing Chicago Center
Thu 03:50:50 PM 42.1300 -86.5614 88° East 419 482 19,300 1,065 Climbing Chicago Center
Thu 03:51:52 PM 42.1369 -86.3683 87° East 429 494 20,500 1,113 Climbing Chicago Center
Thu 03:52:54 PM 42.1417 -86.2047 88° East 435 501 21,600 1,016 Climbing Chicago Center
Thu 03:53:56 PM 42.1431 -86.0378 89° East 444 511 22,600 1,008 Climbing Chicago Center
Thu 03:54:59 PM 42.1417 -85.8522 91° East 444 511 23,700 912 Climbing Chicago Center
Thu 03:56:01 PM 42.1408 -85.6819 90° East 454 522 24,500 774 Climbing Chicago Center
Thu 03:57:03 PM 42.1389 -85.5083 91° East 464 534 25,300 871 Climbing Chicago Center
Thu 03:58:05 PM 42.1372 -85.3336 91° East 469 540 26,300 919 Climbing Chicago Center
Thu 03:59:07 PM 42.1361 -85.1525 90° East 482 555 27,200 919 Climbing Chicago Center
Thu 04:00:09 PM 42.1317 -84.9378 92° East 482 555 28,200 864 Climbing Chicago Center
Thu 04:01:12 PM 42.1289 -84.7558 91° East 486 559 29,000 816 Climbing Chicago Center
Thu 04:02:14 PM 42.1244 -84.5714 92° East 494 568 29,900 871 Climbing Chicago Center
Thu 04:03:16 PM 42.1319 -84.3828 87° East 504 580 30,800 641 Climbing Chicago Center
Thu 04:03:57 PM 42.1467 -84.2533 81° East 516 594 31,000 117 Climbing Cleveland Center
Thu 04:04:59 PM 42.1686 -84.0561 81° East 531 611 31,000  Level Cleveland Center
Thu 04:06:01 PM 42.1939 -83.8228 82° East 528 608 31,000 145 Level Cleveland Center
Thu 04:07:03 PM 42.2142 -83.6294 82° East 526 605 31,300 629 Climbing Cleveland Center
Thu 04:08:05 PM 42.2317 -83.4311 83° East 525 604 32,300 823 Climbing Cleveland Center
Thu 04:09:07 PM 42.2300 -83.2400 91° East 508 585 33,000 339 Climbing Cleveland Center
Thu 04:10:09 PM 42.2319 -83.0258 89° East 523 602 33,000  Level Cleveland Center
Thu 04:11:11 PM 42.2328 -82.8281 90° East 529 609 33,000  Level Cleveland Center
Thu 04:12:13 PM 42.2297 -82.6319 91° East 525 604 33,000  Level Cleveland Center
Thu 04:13:16 PM 42.2081 -82.4383 99° East 522 601 33,000  Level Cleveland Center
Thu 04:14:18 PM 42.1869 -82.2489 98° East 516 594 33,000  Level Cleveland Center
Thu 04:15:20 PM 42.1631 -82.0261 98° East 519 597 33,000  Level Cleveland Center
Thu 04:16:22 PM 42.1408 -81.8325 99° East 518 596 33,000  Level Cleveland Center
Thu 04:17:24 PM 42.1192 -81.6411 99° East 513 590 33,000  Level Cleveland Center
Thu 04:18:26 PM 42.0972 -81.4536 99° East 504 580 33,000  Level Cleveland Center
Thu 04:19:28 PM 42.0761 -81.2675 99° East 499 574 33,000  Level Cleveland Center
Thu 04:20:30 PM 42.0531 -81.0819 99° East 497 572 33,000  Level Cleveland Center
Thu 04:21:32 PM 42.0308 -80.8942 99° East 501 577 33,000  Level Cleveland Center
Thu 04:22:34 PM 42.0050 -80.6731 99° East 506 582 33,000  Level Cleveland Center
Thu 04:23:36 PM 41.9811 -80.4833 100° East 508 585 33,000  Level Cleveland Center
Thu 04:24:38 PM 41.9578 -80.2931 99° East 512 589 33,000  Level Cleveland Center
Thu 04:25:41 PM 41.9331 -80.1036 100° East 512 589 33,000 -144 Level Cleveland Center
Thu 04:26:43 PM 41.9089 -79.9125 100° East 513 590 32,700 -581 Descending Cleveland Center
Thu 04:27:45 PM 41.8831 -79.7231 100° East 512 589 31,800 -823 Descending Cleveland Center
Thu 04:28:47 PM 41.8592 -79.5428 100° East 508 585 31,000 -774 Descending Cleveland Center
Thu 04:29:49 PM 41.8297 -79.3233 100° East 502 578 30,200 -1,016 Descending Cleveland Center
Thu 04:30:51 PM 41.8033 -79.1303 100° East 509 586 28,900 -1,355 Descending Cleveland Center
Thu 04:31:53 PM 41.7781 -78.9450 100° East 509 586 27,400 -1,355 Descending Cleveland Center
Thu 04:32:55 PM 41.7519 -78.7683 101° East 502 578 26,100 -677 Descending Cleveland Center
Thu 04:33:57 PM 41.7267 -78.5853 100° East 501 577 26,000 -48 Descending Cleveland Center
Thu 04:34:59 PM 41.6953 -78.3678 101° East 498 573 26,000  Level Cleveland Center
Thu 04:36:01 PM 41.6686 -78.1864 101° East 497 572 26,000 -48 Level Cleveland Center
Thu 04:37:03 PM 41.6408 -78.0042 101° East 499 574 25,900 -672 Descending Cleveland Center
Thu 04:38:06 PM 41.6142 -77.8219 101° East 501 577 24,600 -1,296 Descending Cleveland Center
Thu 04:39:08 PM 41.5872 -77.6411 101° East 500 575 23,200 -1,113 Descending Cleveland Center
Thu 04:40:10 PM 41.5583 -77.4619 102° East 498 573 22,300 -1,500 Descending Cleveland Center
Thu 04:41:12 PM 41.5289 -77.2631 101° East 464 534 20,100 -2,274 Descending Cleveland Center
Thu 04:42:14 PM 41.5064 -77.1108 101° East 430 495 17,600 -2,371 Descending Cleveland Center
Thu 04:43:16 PM 41.4825 -76.9628 102° East 416 479 15,200 -2,129 Descending Cleveland Center
Thu 04:44:18 PM 41.4581 -76.8153 102° East 413 475 13,200 -1,887 Descending Cleveland Center
Thu 04:45:20 PM 41.4369 -76.6764 101° East 396 456 11,300 -1,548 Descending Cleveland Center
Thu 04:46:22 PM 41.4119 -76.5289 103° East 355 409 10,000 -1,161 Descending Cleveland Center
Thu 04:47:24 PM 41.3961 -76.4264 102° East 316 364 8,900 -532 Descending Cleveland Center
Thu 04:48:26 PM 41.3772 -76.3164 103° East 305 351 8,900 -290 Level Cleveland Center
Thu 04:49:28 PM 41.3606 -76.2086 102° East 302 348 8,300 -1,031 Descending Cleveland Center
Thu 04:50:34 PM 41.3775 -76.0878 79° East 285 328 6,700 -1,762 Descending New York Center
Thu 04:51:34 PM 41.4319 -75.9869 54° Northeast 291 335 4,600 -1,350 Descending New York Center
Thu 04:52:34 PM 41.4753 -75.8989 57° Northeast 291 335 4,000 -300 Descending New York Center
Thu 04:53:34 PM 41.4981 -75.8036 72° East 278 320 4,000  Level New York Center
Thu 04:54:34 PM 41.5186 -75.7108 73° East 266 306 4,000 -100 Level New York Center
Thu 04:55:34 PM 41.5267 -75.6200 83° East 260 299 3,800 -150 Descending New York Center
Thu 04:56:34 PM 41.4814 -75.6058 167° South 160 184 3,700 -250 Descending New York Center
Thu 04:57:34 PM 41.4428 -75.6306 206° Southwest 136 157 3,300 -500 Descending New York Center
Thu 04:58:34 PM 41.4169 -75.6536 214° Southwest 130 150 2,700 -600 Descending New York Center

Login

Don't have an account? Register now (free) for customized features, flight alerts, and more!